Wetterdaten: Woche 03.04.17 - 09.04.17 (KW14)
Datum Zeit Temperatur Luftfeuchte Luftdruck Niederschlag Windrichtung Sonnenschein Solar Wind
03.04.2017 00:00 9,5 C 90 % 1019,5 hPa 0,0 l/m N 0,00 h 0 W/m 0,3 km/h (0 Bft)
03.04.2017 01:00 9,2 C 91 % 1019,7 hPa 0,0 l/m N 0,00 h 0 W/m 1,6 km/h (1 Bft)
03.04.2017 02:00 8,9 C 92 % 1020,0 hPa 0,0 l/m N 0,00 h 0 W/m 0,9 km/h (0 Bft)
03.04.2017 03:00 8,7 C 93 % 1020,2 hPa 0,0 l/m N-NW 0,00 h 0 W/m 3,9 km/h (1 Bft)
03.04.2017 04:00 9,6 C 92 % 1020,1 hPa 0,0 l/m NW 0,00 h 0 W/m 10,2 km/h (2 Bft)
03.04.2017 05:00 9,3 C 94 % 1020,1 hPa 0,0 l/m NW 0,00 h 0 W/m 7,0 km/h (2 Bft)
03.04.2017 06:00 8,2 C 95 % 1020,1 hPa 0,0 l/m N 0,00 h 5 W/m 0,0 km/h (0 Bft)
03.04.2017 07:00 7,3 C 97 % 1020,4 hPa 0,0 l/m N 0,00 h 22 W/m 0,0 km/h (0 Bft)
03.04.2017 08:00 8,1 C 98 % 1020,9 hPa 0,0 l/m N 0,17 h 113 W/m 0,3 km/h (0 Bft)
03.04.2017 09:00 10,2 C 92 % 1021,0 hPa 0,0 l/m O-NO 0,92 h 334 W/m 10,5 km/h (2 Bft)
03.04.2017 10:00 12,2 C 83 % 1021,2 hPa 0,0 l/m O 1,00 h 520 W/m 11,8 km/h (2 Bft)
03.04.2017 11:00 13,8 C 76 % 1021,2 hPa 0,0 l/m O-NO 0,83 h 545 W/m 13,2 km/h (3 Bft)
03.04.2017 12:00 14,4 C 73 % 1021,0 hPa 0,0 l/m O-NO 0,92 h 476 W/m 14,8 km/h (3 Bft)
03.04.2017 13:00 15,8 C 68 % 1020,6 hPa 0,0 l/m O-NO 1,00 h 729 W/m 13,8 km/h (3 Bft)
03.04.2017 14:00 16,7 C 65 % 1019,9 hPa 0,0 l/m NO 1,00 h 652 W/m 15,3 km/h (3 Bft)
03.04.2017 15:00 17,4 C 58 % 1019,3 hPa 0,0 l/m O 1,00 h 593 W/m 16,8 km/h (3 Bft)
03.04.2017 16:00 17,2 C 58 % 1019,0 hPa 0,0 l/m O-NO 0,33 h 246 W/m 12,7 km/h (3 Bft)
03.04.2017 17:00 15,2 C 66 % 1019,1 hPa 0,0 l/m N 0,08 h 150 W/m 15,2 km/h (3 Bft)
03.04.2017 18:00 14,3 C 71 % 1019,1 hPa 0,0 l/m N 0,08 h 107 W/m 14,0 km/h (3 Bft)
03.04.2017 19:00 12,6 C 76 % 1019,4 hPa 0,0 l/m N-NO 0,00 h 30 W/m 13,0 km/h (3 Bft)
03.04.2017 20:00 11,9 C 80 % 1019,8 hPa 0,0 l/m N-NO 0,00 h 0 W/m 4,3 km/h (1 Bft)
03.04.2017 21:00 11,6 C 84 % 1020,2 hPa 0,0 l/m NO 0,00 h 0 W/m 6,2 km/h (2 Bft)
03.04.2017 22:00 11,3 C 86 % 1020,1 hPa 0,0 l/m N 0,00 h 0 W/m 0,0 km/h (0 Bft)
03.04.2017 23:00 11,1 C 86 % 1020,1 hPa 0,0 l/m N 0,00 h 0 W/m 0,7 km/h (0 Bft)
04.04.2017 00:00 10,7 C 88 % 1020,1 hPa 0,0 l/m N 0,00 h 0 W/m 0,0 km/h (0 Bft)
04.04.2017 01:00 9,7 C 91 % 1019,8 hPa 0,0 l/m N 0,00 h 0 W/m 0,0 km/h (0 Bft)
04.04.2017 02:00 9,5 C 93 % 1019,5 hPa 0,0 l/m N 0,00 h 0 W/m 1,1 km/h (0 Bft)
04.04.2017 03:00 9,4 C 93 % 1019,1 hPa 0,0 l/m NO 0,00 h 0 W/m 1,7 km/h (1 Bft)
04.04.2017 04:00 8,4 C 94 % 1018,9 hPa 0,0 l/m N 0,00 h 0 W/m 0,0 km/h (0 Bft)
04.04.2017 05:00 7,3 C 96 % 1018,9 hPa 0,0 l/m NO 0,00 h 0 W/m 4,0 km/h (1 Bft)
04.04.2017 06:00 7,1 C 97 % 1019,2 hPa 0,0 l/m N-NO 0,00 h 0 W/m 5,5 km/h (1 Bft)
04.04.2017 07:00 7,1 C 97 % 1019,5 hPa 3,0 l/m NO 0,00 h 25 W/m 8,6 km/h (2 Bft)
04.04.2017 08:00 7,5 C 97 % 1019,4 hPa 0,0 l/m N 0,17 h 121 W/m 0,0 km/h (0 Bft)
04.04.2017 09:00 8,6 C 96 % 1019,5 hPa 0,0 l/m NO 0,92 h 349 W/m 1,3 km/h (1 Bft)
04.04.2017 10:00 10,1 C 90 % 1019,7 hPa 0,0 l/m N-NO 0,83 h 411 W/m 8,2 km/h (2 Bft)
04.04.2017 11:00 10,9 C 85 % 1019,9 hPa 0,0 l/m N-NO 0,25 h 340 W/m 7,1 km/h (2 Bft)
04.04.2017 12:00 12,8 C 71 % 1019,6 hPa 0,0 l/m O-NO 0,75 h 651 W/m 9,3 km/h (2 Bft)
04.04.2017 13:00 11,4 C 73 % 1019,6 hPa 0,2 l/m N-NO 0,17 h 227 W/m 8,7 km/h (2 Bft)
04.04.2017 14:00 13,2 C 65 % 1019,1 hPa 0,0 l/m S-SW 0,67 h 518 W/m 7,0 km/h (2 Bft)
04.04.2017 15:00 10,9 C 71 % 1019,5 hPa 1,0 l/m W 0,00 h 82 W/m 16,6 km/h (3 Bft)
04.04.2017 16:00 9,9 C 83 % 1019,4 hPa 0,2 l/m O-SO 0,50 h 380 W/m 11,8 km/h (2 Bft)
04.04.2017 17:00 10,5 C 78 % 1019,5 hPa 0,0 l/m S-SO 0,42 h 197 W/m 10,9 km/h (2 Bft)
04.04.2017 18:00 9,6 C 81 % 1019,7 hPa 0,0 l/m S 0,08 h 65 W/m 9,4 km/h (2 Bft)
04.04.2017 19:00 8,9 C 84 % 1019,5 hPa 0,0 l/m S 0,00 h 19 W/m 5,5 km/h (1 Bft)
04.04.2017 20:00 8,3 C 85 % 1019,9 hPa 0,0 l/m S 0,00 h 0 W/m 2,0 km/h (1 Bft)
04.04.2017 21:00 7,8 C 89 % 1020,5 hPa 0,0 l/m S-SW 0,00 h 0 W/m 2,3 km/h (1 Bft)
04.04.2017 22:00 7,8 C 90 % 1020,9 hPa 0,4 l/m N-NW 0,00 h 0 W/m 8,7 km/h (2 Bft)
04.04.2017 23:00 7,3 C 93 % 1020,9 hPa 0,6 l/m W-NW 0,00 h 0 W/m 8,4 km/h (2 Bft)
05.04.2017 00:00 7,0 C 88 % 1020,5 hPa 0,2 l/m W 0,00 h 0 W/m 5,6 km/h (1 Bft)
05.04.2017 01:00 7,1 C 86 % 1020,0 hPa 0,0 l/m W-SW 0,00 h 0 W/m 10,2 km/h (2 Bft)
05.04.2017 02:00 6,7 C 90 % 1019,9 hPa 0,0 l/m N-NO 0,00 h 0 W/m 1,6 km/h (1 Bft)
05.04.2017 03:00 6,2 C 92 % 1019,7 hPa 0,0 l/m N 0,00 h 0 W/m 0,0 km/h (0 Bft)
05.04.2017 04:00 5,7 C 94 % 1019,6 hPa 0,0 l/m N 0,00 h 0 W/m 0,0 km/h (0 Bft)
05.04.2017 05:00 5,5 C 95 % 1019,7 hPa 0,0 l/m N 0,00 h 0 W/m 0,5 km/h (0 Bft)
05.04.2017 06:00 4,5 C 96 % 1019,9 hPa 0,0 l/m N-NO 0,00 h 5 W/m 1,9 km/h (1 Bft)
05.04.2017 07:00 3,8 C 97 % 1020,6 hPa 0,0 l/m N-NO 0,00 h 35 W/m 5,6 km/h (1 Bft)
05.04.2017 08:00 4,4 C 98 % 1020,8 hPa 0,0 l/m N-NO 0,00 h 93 W/m 3,7 km/h (1 Bft)
05.04.2017 09:00 5,3 C 98 % 1021,4 hPa 0,0 l/m NO 0,17 h 209 W/m 4,9 km/h (1 Bft)
05.04.2017 10:00 7,4 C 94 % 1021,8 hPa 0,0 l/m NO 0,83 h 449 W/m 3,3 km/h (1 Bft)
05.04.2017 11:00 10,1 C 80 % 1021,5 hPa 0,0 l/m O-SO 0,75 h 604 W/m 5,0 km/h (1 Bft)
05.04.2017 12:00 11,6 C 68 % 1021,3 hPa 0,0 l/m NO 0,67 h 571 W/m 9,1 km/h (2 Bft)
05.04.2017 13:00 12,5 C 63 % 1020,9 hPa 0,0 l/m S-SW 0,42 h 412 W/m 7,2 km/h (2 Bft)
05.04.2017 14:00 12,6 C 60 % 1020,6 hPa 0,0 l/m SO 0,00 h 294 W/m 4,8 km/h (1 Bft)
05.04.2017 15:00 12,6 C 60 % 1020,3 hPa 0,0 l/m NO 0,00 h 261 W/m 6,0 km/h (2 Bft)
05.04.2017 16:00 12,7 C 58 % 1020,0 hPa 0,0 l/m O-SO 0,00 h 169 W/m 4,7 km/h (1 Bft)
05.04.2017 17:00 12,2 C 60 % 1019,9 hPa 0,0 l/m N 0,00 h 66 W/m 0,9 km/h (0 Bft)
05.04.2017 18:00 11,7 C 68 % 1019,9 hPa 0,0 l/m SW 0,00 h 37 W/m 3,9 km/h (1 Bft)
05.04.2017 19:00 11,0 C 75 % 1019,9 hPa 0,0 l/m SW 0,00 h 15 W/m 7,9 km/h (2 Bft)
05.04.2017 20:00 10,5 C 77 % 1020,1 hPa 0,0 l/m N 0,00 h 0 W/m 0,4 km/h (0 Bft)
05.04.2017 21:00 9,8 C 80 % 1020,3 hPa 0,0 l/m NW 0,00 h 0 W/m 4,2 km/h (1 Bft)
05.04.2017 22:00 9,6 C 77 % 1020,4 hPa 0,0 l/m NW 0,00 h 0 W/m 3,6 km/h (1 Bft)
05.04.2017 23:00 8,8 C 79 % 1020,1 hPa 0,0 l/m N 0,00 h 0 W/m 0,0 km/h (0 Bft)
06.04.2017 00:00 7,7 C 81 % 1020,3 hPa 0,0 l/m N-NW 0,00 h 0 W/m 5,8 km/h (2 Bft)
06.04.2017 01:00 7,5 C 78 % 1020,6 hPa 0,0 l/m N-NW 0,00 h 0 W/m 10,2 km/h (2 Bft)
06.04.2017 02:00 6,8 C 81 % 1020,4 hPa 0,0 l/m N-NW 0,00 h 0 W/m 4,7 km/h (1 Bft)
06.04.2017 03:00 5,8 C 85 % 1020,2 hPa 0,0 l/m N 0,00 h 0 W/m 2,0 km/h (1 Bft)
06.04.2017 04:00 5,3 C 87 % 1020,2 hPa 0,0 l/m N-NW 0,00 h 0 W/m 2,4 km/h (1 Bft)
06.04.2017 05:00 5,5 C 88 % 1020,5 hPa 0,0 l/m N 0,00 h 0 W/m 0,0 km/h (0 Bft)
06.04.2017 06:00 5,4 C 88 % 1020,9 hPa 0,0 l/m N-NW 0,00 h 5 W/m 4,3 km/h (1 Bft)
06.04.2017 07:00 5,2 C 88 % 1021,6 hPa 0,0 l/m N 0,00 h 23 W/m 1,7 km/h (1 Bft)
06.04.2017 08:00 5,4 C 84 % 1022,4 hPa 0,0 l/m N 0,00 h 42 W/m 6,6 km/h (2 Bft)
06.04.2017 09:00 6,2 C 73 % 1022,6 hPa 0,0 l/m NO 0,17 h 223 W/m 9,5 km/h (2 Bft)
06.04.2017 10:00 7,5 C 68 % 1022,9 hPa 0,0 l/m N 0,58 h 446 W/m 10,3 km/h (2 Bft)
06.04.2017 11:00 8,1 C 66 % 1023,1 hPa 0,0 l/m N-NO 0,33 h 446 W/m 10,6 km/h (2 Bft)
06.04.2017 12:00 8,8 C 60 % 1023,3 hPa 0,0 l/m NO 0,33 h 448 W/m 10,5 km/h (2 Bft)
06.04.2017 13:00 9,2 C 57 % 1023,2 hPa 0,0 l/m N-NO 0,25 h 435 W/m 12,9 km/h (3 Bft)
06.04.2017 14:00 9,2 C 58 % 1023,2 hPa 0,0 l/m N-NO 0,08 h 322 W/m 12,2 km/h (2 Bft)
06.04.2017 15:00 9,6 C 57 % 1022,8 hPa 0,0 l/m N-NO 0,67 h 384 W/m 13,3 km/h (3 Bft)
06.04.2017 16:00 9,7 C 59 % 1022,7 hPa 0,0 l/m N-NO 0,58 h 389 W/m 15,4 km/h (3 Bft)
06.04.2017 17:00 9,4 C 59 % 1022,8 hPa 0,0 l/m N-NO 0,58 h 252 W/m 13,6 km/h (3 Bft)
06.04.2017 18:00 8,8 C 60 % 1023,1 hPa 0,0 l/m N-NO 0,67 h 157 W/m 14,4 km/h (3 Bft)
06.04.2017 19:00 7,4 C 62 % 1023,4 hPa 0,0 l/m N-NO 0,17 h 29 W/m 9,8 km/h (2 Bft)
06.04.2017 20:00 5,7 C 70 % 1024,0 hPa 0,0 l/m N 0,00 h 5 W/m 1,5 km/h (1 Bft)
06.04.2017 21:00 4,0 C 77 % 1024,6 hPa 0,0 l/m N 0,00 h 0 W/m 0,0 km/h (0 Bft)
06.04.2017 22:00 3,0 C 83 % 1024,9 hPa 0,0 l/m N 0,00 h 0 W/m 0,0 km/h (0 Bft)
06.04.2017 23:00 2,3 C 84 % 1025,0 hPa 0,0 l/m N 0,00 h 0 W/m 0,3 km/h (0 Bft)
07.04.2017 00:00 1,3 C 87 % 1024,8 hPa 0,0 l/m N 0,00 h 0 W/m 0,0 km/h (0 Bft)
07.04.2017 01:00 1,0 C 89 % 1024,5 hPa 0,0 l/m N 0,00 h 0 W/m 0,0 km/h (0 Bft)
07.04.2017 02:00 0,7 C 91 % 1024,4 hPa 0,0 l/m N 0,00 h 0 W/m 0,0 km/h (0 Bft)
07.04.2017 03:00 0,1 C 91 % 1024,0 hPa 0,0 l/m N 0,00 h 0 W/m 0,0 km/h (0 Bft)
07.04.2017 04:00 -0,5 C 93 % 1023,8 hPa 0,0 l/m N 0,00 h 0 W/m 0,0 km/h (0 Bft)
07.04.2017 05:00 -0,8 C 93 % 1023,7 hPa 0,0 l/m N 0,00 h 0 W/m 0,0 km/h (0 Bft)
07.04.2017 06:00 -1,1 C 93 % 1023,7 hPa 0,0 l/m N 0,00 h 6 W/m 0,0 km/h (0 Bft)
07.04.2017 07:00 -1,0 C 94 % 1023,7 hPa 0,0 l/m N 0,00 h 38 W/m 0,0 km/h (0 Bft)
07.04.2017 08:00 0,7 C 93 % 1024,0 hPa 0,0 l/m N 0,00 h 108 W/m 0,4 km/h (0 Bft)
07.04.2017 09:00 3,7 C 87 % 1024,3 hPa 0,0 l/m N 0,92 h 358 W/m 0,5 km/h (0 Bft)
07.04.2017 10:00 7,2 C 73 % 1024,3 hPa 0,0 l/m N-NO 0,75 h 476 W/m 1,6 km/h (1 Bft)
07.04.2017 11:00 9,6 C 62 % 1023,9 hPa 0,0 l/m W 0,92 h 671 W/m 6,0 km/h (2 Bft)
07.04.2017 12:00 11,4 C 52 % 1023,4 hPa 0,0 l/m NW 1,00 h 736 W/m 10,1 km/h (2 Bft)
07.04.2017 13:00 13,2 C 50 % 1022,7 hPa 0,0 l/m W-NW 1,00 h 752 W/m 9,9 km/h (2 Bft)
07.04.2017 14:00 14,7 C 47 % 1022,1 hPa 0,0 l/m N 1,00 h 704 W/m 11,4 km/h (2 Bft)
07.04.2017 15:00 15,7 C 46 % 1021,3 hPa 0,0 l/m W-NW 1,00 h 614 W/m 11,4 km/h (2 Bft)
07.04.2017 16:00 16,5 C 46 % 1020,7 hPa 0,0 l/m S-SW 1,00 h 484 W/m 12,4 km/h (3 Bft)
07.04.2017 17:00 15,9 C 51 % 1020,5 hPa 0,0 l/m S-SW 0,83 h 324 W/m 16,2 km/h (3 Bft)
07.04.2017 18:00 14,3 C 53 % 1020,9 hPa 0,0 l/m S-SW 0,08 h 110 W/m 11,4 km/h (2 Bft)
07.04.2017 19:00 13,1 C 54 % 1021,5 hPa 0,0 l/m S-SW 0,08 h 27 W/m 2,9 km/h (1 Bft)
07.04.2017 20:00 11,2 C 65 % 1022,4 hPa 0,0 l/m SW 0,00 h 5 W/m 6,0 km/h (2 Bft)
07.04.2017 21:00 9,1 C 75 % 1022,9 hPa 0,0 l/m N 0,00 h 0 W/m 0,0 km/h (0 Bft)
07.04.2017 22:00 7,6 C 81 % 1023,3 hPa 0,0 l/m N-NW 0,00 h 0 W/m 0,0 km/h (0 Bft)
07.04.2017 23:00 6,7 C 84 % 1023,4 hPa 0,0 l/m N-NW 0,00 h 0 W/m 1,9 km/h (1 Bft)
08.04.2017 00:00 5,7 C 87 % 1023,6 hPa 0,0 l/m N 0,00 h 0 W/m 0,0 km/h (0 Bft)
08.04.2017 01:00 5,0 C 91 % 1023,5 hPa 0,0 l/m N 0,00 h 0 W/m 0,0 km/h (0 Bft)
08.04.2017 02:00 4,4 C 91 % 1023,1 hPa 0,0 l/m N 0,00 h 0 W/m 0,0 km/h (0 Bft)
08.04.2017 03:00 4,1 C 92 % 1022,8 hPa 0,0 l/m N 0,00 h 0 W/m 0,0 km/h (0 Bft)
08.04.2017 04:00 3,5 C 94 % 1022,7 hPa 0,0 l/m N 0,00 h 0 W/m 0,0 km/h (0 Bft)
08.04.2017 05:00 2,9 C 94 % 1022,7 hPa 0,0 l/m N 0,00 h 0 W/m 0,0 km/h (0 Bft)
08.04.2017 06:00 2,2 C 94 % 1023,0 hPa 0,0 l/m N 0,00 h 8 W/m 0,0 km/h (0 Bft)
08.04.2017 07:00 2,8 C 95 % 1023,0 hPa 0,0 l/m N-NW 0,58 h 70 W/m 5,6 km/h (1 Bft)
08.04.2017 08:00 4,5 C 93 % 1022,9 hPa 0,0 l/m N-NW 0,75 h 197 W/m 3,3 km/h (1 Bft)
08.04.2017 09:00 7,2 C 85 % 1023,1 hPa 0,0 l/m N-NO 0,92 h 394 W/m 4,5 km/h (1 Bft)
08.04.2017 10:00 9,7 C 76 % 1022,9 hPa 0,0 l/m O-NO 1,00 h 558 W/m 7,1 km/h (2 Bft)
08.04.2017 11:00 12,0 C 67 % 1022,6 hPa 0,0 l/m O-NO 1,00 h 675 W/m 7,8 km/h (2 Bft)
08.04.2017 12:00 14,3 C 62 % 1022,2 hPa 0,0 l/m O-NO 1,00 h 742 W/m 8,3 km/h (2 Bft)
08.04.2017 13:00 16,0 C 54 % 1021,5 hPa 0,0 l/m NO 1,00 h 756 W/m 11,0 km/h (2 Bft)
08.04.2017 14:00 17,1 C 50 % 1021,0 hPa 0,0 l/m O-NO 1,00 h 716 W/m 9,0 km/h (2 Bft)
08.04.2017 15:00 18,3 C 47 % 1020,5 hPa 0,0 l/m W 1,00 h 627 W/m 7,5 km/h (2 Bft)
08.04.2017 16:00 18,8 C 45 % 1020,0 hPa 0,0 l/m N-NO 1,00 h 490 W/m 6,7 km/h (2 Bft)
08.04.2017 17:00 19,1 C 42 % 1019,9 hPa 0,0 l/m N 1,00 h 338 W/m 6,4 km/h (2 Bft)
08.04.2017 18:00 18,5 C 45 % 1019,9 hPa 0,0 l/m N-NO 0,58 h 147 W/m 5,9 km/h (2 Bft)
08.04.2017 19:00 16,6 C 51 % 1019,9 hPa 0,0 l/m N-NO 0,08 h 28 W/m 1,1 km/h (0 Bft)
08.04.2017 20:00 12,8 C 65 % 1020,4 hPa 0,0 l/m N 0,00 h 5 W/m 0,0 km/h (0 Bft)
08.04.2017 21:00 11,1 C 71 % 1021,0 hPa 0,0 l/m N 0,00 h 0 W/m 0,0 km/h (0 Bft)
08.04.2017 22:00 9,7 C 76 % 1021,4 hPa 0,0 l/m N 0,00 h 0 W/m 0,0 km/h (0 Bft)
08.04.2017 23:00 8,6 C 79 % 1021,4 hPa 0,0 l/m N 0,00 h 0 W/m 0,0 km/h (0 Bft)
09.04.2017 00:00 7,8 C 82 % 1021,5 hPa 0,0 l/m N 0,00 h 0 W/m 0,5 km/h (0 Bft)
09.04.2017 01:00 7,4 C 83 % 1021,5 hPa 0,0 l/m N 0,00 h 0 W/m 0,0 km/h (0 Bft)
09.04.2017 02:00 6,3 C 86 % 1021,4 hPa 0,0 l/m N 0,00 h 0 W/m 0,0 km/h (0 Bft)
09.04.2017 03:00 5,3 C 89 % 1021,4 hPa 0,0 l/m N 0,00 h 0 W/m 0,0 km/h (0 Bft)
09.04.2017 04:00 4,5 C 91 % 1021,5 hPa 0,0 l/m N 0,00 h 0 W/m 0,0 km/h (0 Bft)
09.04.2017 05:00 4,1 C 92 % 1021,5 hPa 0,0 l/m N 0,00 h 0 W/m 0,0 km/h (0 Bft)
09.04.2017 06:00 3,6 C 93 % 1021,7 hPa 0,0 l/m N 0,08 h 9 W/m 0,0 km/h (0 Bft)
09.04.2017 07:00 4,0 C 94 % 1022,1 hPa 0,0 l/m N 0,83 h 80 W/m 0,0 km/h (0 Bft)
09.04.2017 08:00 6,4 C 88 % 1022,6 hPa 0,0 l/m N 0,83 h 219 W/m 0,0 km/h (0 Bft)
09.04.2017 09:00 10,0 C 81 % 1022,8 hPa 0,0 l/m N 0,92 h 391 W/m 0,0 km/h (0 Bft)
09.04.2017 10:00 13,4 C 73 % 1022,9 hPa 0,0 l/m N-NO 0,92 h 527 W/m 3,1 km/h (1 Bft)
09.04.2017 11:00 16,6 C 63 % 1022,7 hPa 0,0 l/m S-SW 1,00 h 691 W/m 7,3 km/h (2 Bft)
09.04.2017 12:00 19,3 C 54 % 1022,2 hPa 0,0 l/m S-SW 1,00 h 753 W/m 11,3 km/h (2 Bft)
09.04.2017 13:00 20,9 C 50 % 1021,7 hPa 0,0 l/m S 1,00 h 757 W/m 12,5 km/h (3 Bft)
09.04.2017 14:00 21,7 C 45 % 1021,3 hPa 0,0 l/m SW 1,00 h 715 W/m 13,2 km/h (3 Bft)
09.04.2017 15:00 22,4 C 40 % 1020,7 hPa 0,0 l/m SO 1,00 h 631 W/m 12,3 km/h (3 Bft)
09.04.2017 16:00 22,9 C 31 % 1020,0 hPa 0,0 l/m W-SW 1,00 h 506 W/m 11,7 km/h (2 Bft)
09.04.2017 17:00 22,9 C 31 % 1019,6 hPa 0,0 l/m S-SW 1,00 h 342 W/m 8,4 km/h (2 Bft)
09.04.2017 18:00 21,9 C 33 % 1019,3 hPa 0,0 l/m S-SW 0,67 h 149 W/m 8,9 km/h (2 Bft)
09.04.2017 19:00 19,2 C 40 % 1019,4 hPa 0,0 l/m SW 0,08 h 27 W/m 8,0 km/h (2 Bft)
09.04.2017 20:00 15,9 C 53 % 1019,6 hPa 0,0 l/m N 0,00 h 5 W/m 0,1 km/h (0 Bft)
09.04.2017 21:00 13,4 C 63 % 1020,0 hPa 0,0 l/m N 0,00 h 0 W/m 0,1 km/h (0 Bft)
09.04.2017 22:00 11,9 C 69 % 1020,0 hPa 0,0 l/m N 0,00 h 0 W/m 0,0 km/h (0 Bft)
09.04.2017 23:00 10,4 C 76 % 1020,0 hPa 0,0 l/m N 0,00 h 0 W/m 0,0 km/h (0 Bft)
Min-Datum _ 07.04.17 09.04.17 04.04.17 - - - - 03.04.17
_ Min-Zeit 07:05 16:20 05:00 - - - - 00:00
Minimum _ -1,4 C 29 % 1018,6 hPa - - - - 0,0 km/h (0 Bft)
Max-Datum _ 09.04.17 03.04.17 06.04.17 04.04.17 - 04.04.17 06.04.17 04.04.17
_ Max-Zeit 16:45 08:15 23:20 07:05 - 10:55 13:10 15:40
Maximum _ 23,3 C 98 % 1025,1 hPa 3,0 l/m - 0,17 h 993 W/m 29,0 km/h
W-NW (5 Bft)
Durchschnitt _ 9,6 C 76 % 1021,2 hPa #5,6 l/m N-NO #50:10 h 314 W/m 5,2 km/h (1 Bft)